sensor_id;sensor_type;location;lat;lon;timestamp;P1;durP1;ratioP1;P2;durP2;ratioP2
15412;SDS011;7805;49.554;7.632;2023-05-29T00:02:08;9.57;;;7.10;;
15412;SDS011;7805;49.554;7.632;2023-05-29T00:04:33;8.23;;;6.67;;
15412;SDS011;7805;49.554;7.632;2023-05-29T00:07:00;12.00;;;6.70;;
15412;SDS011;7805;49.554;7.632;2023-05-29T00:09:25;9.17;;;7.40;;
15412;SDS011;7805;49.554;7.632;2023-05-29T00:11:51;16.00;;;7.67;;
15412;SDS011;7805;49.554;7.632;2023-05-29T00:14:18;15.17;;;6.40;;
15412;SDS011;7805;49.554;7.632;2023-05-29T00:16:47;12.57;;;6.87;;
15412;SDS011;7805;49.554;7.632;2023-05-29T00:19:14;15.13;;;7.50;;
15412;SDS011;7805;49.554;7.632;2023-05-29T00:21:41;9.30;;;6.03;;
15412;SDS011;7805;49.554;7.632;2023-05-29T00:24:07;12.23;;;6.10;;
15412;SDS011;7805;49.554;7.632;2023-05-29T00:26:33;15.10;;;7.13;;
15412;SDS011;7805;49.554;7.632;2023-05-29T00:28:58;11.43;;;6.50;;
15412;SDS011;7805;49.554;7.632;2023-05-29T00:31:24;11.47;;;6.13;;
15412;SDS011;7805;49.554;7.632;2023-05-29T00:33:50;7.77;;;5.67;;
15412;SDS011;7805;49.554;7.632;2023-05-29T00:36:15;8.77;;;5.93;;
15412;SDS011;7805;49.554;7.632;2023-05-29T00:38:41;14.27;;;6.27;;
15412;SDS011;7805;49.554;7.632;2023-05-29T00:41:07;11.73;;;6.23;;
15412;SDS011;7805;49.554;7.632;2023-05-29T00:43:33;12.57;;;6.63;;
15412;SDS011;7805;49.554;7.632;2023-05-29T00:45:58;8.57;;;6.57;;
15412;SDS011;7805;49.554;7.632;2023-05-29T00:48:24;11.50;;;6.53;;
15412;SDS011;7805;49.554;7.632;2023-05-29T00:50:51;9.93;;;6.93;;
15412;SDS011;7805;49.554;7.632;2023-05-29T00:53:16;12.13;;;7.20;;
15412;SDS011;7805;49.554;7.632;2023-05-29T00:55:42;12.63;;;7.10;;
15412;SDS011;7805;49.554;7.632;2023-05-29T00:58:08;9.10;;;5.80;;
15412;SDS011;7805;49.554;7.632;2023-05-29T01:00:34;11.97;;;6.77;;
15412;SDS011;7805;49.554;7.632;2023-05-29T01:03:01;9.77;;;6.03;;
15412;SDS011;7805;49.554;7.632;2023-05-29T01:05:29;11.87;;;7.00;;
15412;SDS011;7805;49.554;7.632;2023-05-29T01:07:58;9.47;;;6.87;;
15412;SDS011;7805;49.554;7.632;2023-05-29T01:10:24;8.37;;;6.77;;
15412;SDS011;7805;49.554;7.632;2023-05-29T01:12:59;6.13;;;5.00;;
15412;SDS011;7805;49.554;7.632;2023-05-29T01:15:46;9.80;;;5.90;;
15412;SDS011;7805;49.554;7.632;2023-05-29T01:21:56;7.27;;;5.87;;
15412;SDS011;7805;49.554;7.632;2023-05-29T01:27:13;7.77;;;6.20;;
15412;SDS011;7805;49.554;7.632;2023-05-29T01:29:42;7.67;;;6.47;;
15412;SDS011;7805;49.554;7.632;2023-05-29T01:32:11;9.10;;;6.30;;
15412;SDS011;7805;49.554;7.632;2023-05-29T01:34:37;8.27;;;7.37;;
15412;SDS011;7805;49.554;7.632;2023-05-29T01:37:02;8.73;;;7.00;;
15412;SDS011;7805;49.554;7.632;2023-05-29T01:39:28;11.33;;;6.47;;
15412;SDS011;7805;49.554;7.632;2023-05-29T01:41:55;8.67;;;6.77;;
15412;SDS011;7805;49.554;7.632;2023-05-29T01:44:22;5.93;;;5.37;;
15412;SDS011;7805;49.554;7.632;2023-05-29T01:46:48;9.20;;;5.87;;
15412;SDS011;7805;49.554;7.632;2023-05-29T01:49:14;8.67;;;6.13;;
15412;SDS011;7805;49.554;7.632;2023-05-29T01:51:41;7.77;;;5.87;;
15412;SDS011;7805;49.554;7.632;2023-05-29T01:54:07;7.60;;;5.87;;
15412;SDS011;7805;49.554;7.632;2023-05-29T01:56:33;8.83;;;6.40;;
15412;SDS011;7805;49.554;7.632;2023-05-29T01:59:00;7.87;;;5.93;;
15412;SDS011;7805;49.554;7.632;2023-05-29T02:01:27;8.27;;;6.03;;
15412;SDS011;7805;49.554;7.632;2023-05-29T02:03:53;7.40;;;5.50;;
15412;SDS011;7805;49.554;7.632;2023-05-29T02:06:18;7.27;;;6.07;;
15412;SDS011;7805;49.554;7.632;2023-05-29T02:08:45;8.90;;;6.83;;
15412;SDS011;7805;49.554;7.632;2023-05-29T02:11:11;10.80;;;7.43;;
15412;SDS011;7805;49.554;7.632;2023-05-29T02:13:36;6.43;;;5.70;;
15412;SDS011;7805;49.554;7.632;2023-05-29T02:16:02;9.87;;;5.90;;
15412;SDS011;7805;49.554;7.632;2023-05-29T02:18:28;7.13;;;6.37;;
15412;SDS011;7805;49.554;7.632;2023-05-29T02:20:53;7.60;;;5.50;;
15412;SDS011;7805;49.554;7.632;2023-05-29T02:23:19;9.67;;;7.03;;
15412;SDS011;7805;49.554;7.632;2023-05-29T02:25:45;8.40;;;7.33;;
15412;SDS011;7805;49.554;7.632;2023-05-29T02:28:11;8.77;;;7.73;;
15412;SDS011;7805;49.554;7.632;2023-05-29T02:30:36;11.30;;;7.13;;
15412;SDS011;7805;49.554;7.632;2023-05-29T02:33:02;8.23;;;7.17;;
15412;SDS011;7805;49.554;7.632;2023-05-29T02:35:28;11.57;;;6.90;;
15412;SDS011;7805;49.554;7.632;2023-05-29T02:37:53;9.03;;;6.23;;
15412;SDS011;7805;49.554;7.632;2023-05-29T02:40:20;5.63;;;5.13;;
15412;SDS011;7805;49.554;7.632;2023-05-29T02:42:46;13.07;;;5.93;;
15412;SDS011;7805;49.554;7.632;2023-05-29T02:45:12;8.33;;;6.30;;
15412;SDS011;7805;49.554;7.632;2023-05-29T02:47:38;7.77;;;5.30;;
15412;SDS011;7805;49.554;7.632;2023-05-29T02:50:03;7.60;;;5.83;;
15412;SDS011;7805;49.554;7.632;2023-05-29T02:52:30;6.87;;;5.93;;
15412;SDS011;7805;49.554;7.632;2023-05-29T02:54:57;7.67;;;6.03;;
15412;SDS011;7805;49.554;7.632;2023-05-29T02:57:23;8.07;;;6.10;;
15412;SDS011;7805;49.554;7.632;2023-05-29T02:59:49;7.47;;;5.70;;
15412;SDS011;7805;49.554;7.632;2023-05-29T03:02:16;6.97;;;5.77;;
15412;SDS011;7805;49.554;7.632;2023-05-29T03:04:42;7.93;;;6.47;;
15412;SDS011;7805;49.554;7.632;2023-05-29T03:07:07;5.93;;;5.30;;
15412;SDS011;7805;49.554;7.632;2023-05-29T03:09:34;7.50;;;5.20;;
15412;SDS011;7805;49.554;7.632;2023-05-29T03:12:00;9.37;;;6.00;;
15412;SDS011;7805;49.554;7.632;2023-05-29T03:14:26;8.77;;;5.63;;
15412;SDS011;7805;49.554;7.632;2023-05-29T03:16:52;6.17;;;4.97;;
15412;SDS011;7805;49.554;7.632;2023-05-29T03:19:18;7.00;;;5.37;;
15412;SDS011;7805;49.554;7.632;2023-05-29T03:21:44;8.97;;;5.90;;
15412;SDS011;7805;49.554;7.632;2023-05-29T03:24:10;7.20;;;6.10;;
15412;SDS011;7805;49.554;7.632;2023-05-29T03:26:36;6.80;;;5.60;;
15412;SDS011;7805;49.554;7.632;2023-05-29T03:29:01;7.00;;;5.77;;
15412;SDS011;7805;49.554;7.632;2023-05-29T03:31:27;6.80;;;4.90;;
15412;SDS011;7805;49.554;7.632;2023-05-29T03:33:53;6.67;;;5.17;;
15412;SDS011;7805;49.554;7.632;2023-05-29T03:36:18;7.13;;;5.30;;
15412;SDS011;7805;49.554;7.632;2023-05-29T03:38:44;5.93;;;5.10;;
15412;SDS011;7805;49.554;7.632;2023-05-29T03:41:10;5.40;;;4.60;;
15412;SDS011;7805;49.554;7.632;2023-05-29T03:43:35;6.93;;;4.40;;
15412;SDS011;7805;49.554;7.632;2023-05-29T03:46:01;11.57;;;5.37;;
15412;SDS011;7805;49.554;7.632;2023-05-29T03:48:27;5.63;;;5.03;;
15412;SDS011;7805;49.554;7.632;2023-05-29T03:50:52;6.07;;;5.30;;
15412;SDS011;7805;49.554;7.632;2023-05-29T03:53:18;6.97;;;5.27;;
15412;SDS011;7805;49.554;7.632;2023-05-29T03:55:44;8.63;;;5.43;;
15412;SDS011;7805;49.554;7.632;2023-05-29T03:58:09;7.20;;;5.17;;
15412;SDS011;7805;49.554;7.632;2023-05-29T04:00:37;5.70;;;4.87;;
15412;SDS011;7805;49.554;7.632;2023-05-29T04:03:03;5.83;;;5.10;;
15412;SDS011;7805;49.554;7.632;2023-05-29T04:05:28;6.47;;;4.90;;
15412;SDS011;7805;49.554;7.632;2023-05-29T04:07:55;6.53;;;5.40;;
15412;SDS011;7805;49.554;7.632;2023-05-29T04:10:20;8.23;;;5.00;;
15412;SDS011;7805;49.554;7.632;2023-05-29T04:12:46;7.63;;;5.40;;
15412;SDS011;7805;49.554;7.632;2023-05-29T04:15:12;5.23;;;4.53;;
15412;SDS011;7805;49.554;7.632;2023-05-29T04:17:37;6.77;;;4.93;;
15412;SDS011;7805;49.554;7.632;2023-05-29T04:20:03;6.07;;;4.23;;
15412;SDS011;7805;49.554;7.632;2023-05-29T04:22:36;7.67;;;4.60;;
15412;SDS011;7805;49.554;7.632;2023-05-29T04:25:03;6.03;;;5.37;;
15412;SDS011;7805;49.554;7.632;2023-05-29T04:27:32;7.73;;;5.80;;
15412;SDS011;7805;49.554;7.632;2023-05-29T04:30:03;5.53;;;4.97;;
15412;SDS011;7805;49.554;7.632;2023-05-29T04:32:30;6.27;;;5.13;;
15412;SDS011;7805;49.554;7.632;2023-05-29T04:34:55;8.47;;;5.03;;
15412;SDS011;7805;49.554;7.632;2023-05-29T04:37:21;6.40;;;5.37;;
15412;SDS011;7805;49.554;7.632;2023-05-29T04:39:54;6.43;;;5.20;;
15412;SDS011;7805;49.554;7.632;2023-05-29T04:42:20;5.43;;;4.93;;
15412;SDS011;7805;49.554;7.632;2023-05-29T04:44:47;8.37;;;6.00;;
15412;SDS011;7805;49.554;7.632;2023-05-29T04:47:14;7.90;;;5.50;;
15412;SDS011;7805;49.554;7.632;2023-05-29T04:49:40;7.70;;;5.27;;
15412;SDS011;7805;49.554;7.632;2023-05-29T04:52:06;7.27;;;5.70;;
15412;SDS011;7805;49.554;7.632;2023-05-29T04:54:33;6.37;;;5.40;;
15412;SDS011;7805;49.554;7.632;2023-05-29T04:57:00;5.33;;;4.83;;
15412;SDS011;7805;49.554;7.632;2023-05-29T04:59:26;6.97;;;5.03;;
15412;SDS011;7805;49.554;7.632;2023-05-29T05:01:52;5.87;;;5.27;;
15412;SDS011;7805;49.554;7.632;2023-05-29T05:04:18;6.37;;;4.93;;
15412;SDS011;7805;49.554;7.632;2023-05-29T05:06:43;6.97;;;5.00;;
15412;SDS011;7805;49.554;7.632;2023-05-29T05:09:09;7.37;;;5.40;;
15412;SDS011;7805;49.554;7.632;2023-05-29T05:11:35;5.60;;;4.77;;
15412;SDS011;7805;49.554;7.632;2023-05-29T05:14:00;6.20;;;5.57;;
15412;SDS011;7805;49.554;7.632;2023-05-29T05:16:26;5.73;;;4.50;;
15412;SDS011;7805;49.554;7.632;2023-05-29T05:18:51;7.37;;;4.40;;
15412;SDS011;7805;49.554;7.632;2023-05-29T05:21:17;5.73;;;4.70;;
15412;SDS011;7805;49.554;7.632;2023-05-29T05:23:42;6.90;;;5.03;;
15412;SDS011;7805;49.554;7.632;2023-05-29T05:26:08;6.20;;;4.70;;
15412;SDS011;7805;49.554;7.632;2023-05-29T05:28:34;6.10;;;4.83;;
15412;SDS011;7805;49.554;7.632;2023-05-29T05:31:00;6.57;;;4.73;;
15412;SDS011;7805;49.554;7.632;2023-05-29T05:33:27;7.33;;;5.07;;
15412;SDS011;7805;49.554;7.632;2023-05-29T05:35:52;4.87;;;4.43;;
15412;SDS011;7805;49.554;7.632;2023-05-29T05:38:18;5.93;;;4.27;;
15412;SDS011;7805;49.554;7.632;2023-05-29T05:40:43;6.17;;;4.90;;
15412;SDS011;7805;49.554;7.632;2023-05-29T05:43:10;5.83;;;4.60;;
15412;SDS011;7805;49.554;7.632;2023-05-29T05:45:35;6.40;;;4.37;;
15412;SDS011;7805;49.554;7.632;2023-05-29T05:48:02;10.37;;;5.27;;
15412;SDS011;7805;49.554;7.632;2023-05-29T05:50:28;5.57;;;3.77;;
15412;SDS011;7805;49.554;7.632;2023-05-29T05:52:54;12.60;;;6.73;;
15412;SDS011;7805;49.554;7.632;2023-05-29T05:55:20;5.03;;;3.80;;
15412;SDS011;7805;49.554;7.632;2023-05-29T05:57:45;6.53;;;4.30;;
15412;SDS011;7805;49.554;7.632;2023-05-29T06:00:11;5.47;;;3.90;;
15412;SDS011;7805;49.554;7.632;2023-05-29T06:02:38;8.43;;;5.53;;
15412;SDS011;7805;49.554;7.632;2023-05-29T06:05:07;6.23;;;4.40;;
15412;SDS011;7805;49.554;7.632;2023-05-29T06:07:34;3.93;;;3.47;;
15412;SDS011;7805;49.554;7.632;2023-05-29T06:10:00;4.53;;;3.63;;
15412;SDS011;7805;49.554;7.632;2023-05-29T06:12:26;6.57;;;3.27;;
15412;SDS011;7805;49.554;7.632;2023-05-29T06:14:52;4.80;;;3.50;;
15412;SDS011;7805;49.554;7.632;2023-05-29T06:17:18;7.90;;;4.00;;
15412;SDS011;7805;49.554;7.632;2023-05-29T06:19:43;6.60;;;3.90;;
15412;SDS011;7805;49.554;7.632;2023-05-29T06:22:09;6.60;;;3.93;;
15412;SDS011;7805;49.554;7.632;2023-05-29T06:24:34;4.03;;;3.43;;
15412;SDS011;7805;49.554;7.632;2023-05-29T06:27:00;4.87;;;3.57;;
15412;SDS011;7805;49.554;7.632;2023-05-29T06:29:26;4.83;;;3.27;;
15412;SDS011;7805;49.554;7.632;2023-05-29T06:31:52;6.20;;;3.53;;
15412;SDS011;7805;49.554;7.632;2023-05-29T06:34:17;5.93;;;3.60;;
15412;SDS011;7805;49.554;7.632;2023-05-29T06:36:43;4.93;;;3.23;;
15412;SDS011;7805;49.554;7.632;2023-05-29T06:39:09;4.00;;;3.20;;
15412;SDS011;7805;49.554;7.632;2023-05-29T06:41:35;4.37;;;3.57;;
15412;SDS011;7805;49.554;7.632;2023-05-29T06:44:01;4.00;;;3.70;;
15412;SDS011;7805;49.554;7.632;2023-05-29T06:46:26;3.70;;;3.20;;
15412;SDS011;7805;49.554;7.632;2023-05-29T06:48:52;4.77;;;4.00;;
15412;SDS011;7805;49.554;7.632;2023-05-29T06:51:17;5.67;;;3.33;;
15412;SDS011;7805;49.554;7.632;2023-05-29T06:53:43;5.37;;;3.10;;
15412;SDS011;7805;49.554;7.632;2023-05-29T06:56:09;4.77;;;3.70;;
15412;SDS011;7805;49.554;7.632;2023-05-29T06:58:35;4.82;;;3.40;;
15412;SDS011;7805;49.554;7.632;2023-05-29T07:01:01;6.07;;;3.28;;
15412;SDS011;7805;49.554;7.632;2023-05-29T07:03:26;5.70;;;3.63;;
15412;SDS011;7805;49.554;7.632;2023-05-29T07:05:52;6.15;;;3.92;;
15412;SDS011;7805;49.554;7.632;2023-05-29T07:08:18;4.28;;;3.80;;
15412;SDS011;7805;49.554;7.632;2023-05-29T07:10:44;5.70;;;4.00;;
15412;SDS011;7805;49.554;7.632;2023-05-29T07:13:10;6.68;;;3.65;;
15412;SDS011;7805;49.554;7.632;2023-05-29T07:15:38;11.05;;;3.75;;
15412;SDS011;7805;49.554;7.632;2023-05-29T07:18:04;3.88;;;3.47;;
15412;SDS011;7805;49.554;7.632;2023-05-29T07:20:29;5.43;;;3.25;;
15412;SDS011;7805;49.554;7.632;2023-05-29T07:22:55;6.43;;;3.40;;
15412;SDS011;7805;49.554;7.632;2023-05-29T07:25:20;4.45;;;3.20;;
15412;SDS011;7805;49.554;7.632;2023-05-29T07:27:46;5.30;;;2.83;;
15412;SDS011;7805;49.554;7.632;2023-05-29T07:30:12;4.68;;;3.50;;
15412;SDS011;7805;49.554;7.632;2023-05-29T07:32:37;6.07;;;3.35;;
15412;SDS011;7805;49.554;7.632;2023-05-29T07:35:03;5.45;;;3.70;;
15412;SDS011;7805;49.554;7.632;2023-05-29T07:37:29;8.52;;;3.80;;
15412;SDS011;7805;49.554;7.632;2023-05-29T07:39:55;4.47;;;3.65;;
15412;SDS011;7805;49.554;7.632;2023-05-29T07:42:21;7.60;;;3.35;;
15412;SDS011;7805;49.554;7.632;2023-05-29T07:44:46;8.35;;;4.25;;
15412;SDS011;7805;49.554;7.632;2023-05-29T07:47:13;5.38;;;4.10;;
15412;SDS011;7805;49.554;7.632;2023-05-29T07:49:38;5.18;;;3.70;;
15412;SDS011;7805;49.554;7.632;2023-05-29T07:52:04;6.38;;;3.42;;
15412;SDS011;7805;49.554;7.632;2023-05-29T07:54:30;4.53;;;3.72;;
15412;SDS011;7805;49.554;7.632;2023-05-29T07:56:58;6.22;;;4.10;;
15412;SDS011;7805;49.554;7.632;2023-05-29T07:59:24;3.60;;;3.25;;
15412;SDS011;7805;49.554;7.632;2023-05-29T08:04:18;6.18;;;3.33;;
15412;SDS011;7805;49.554;7.632;2023-05-29T08:06:44;6.05;;;3.55;;
15412;SDS011;7805;49.554;7.632;2023-05-29T08:09:10;3.75;;;3.00;;
15412;SDS011;7805;49.554;7.632;2023-05-29T08:11:36;5.65;;;3.20;;
15412;SDS011;7805;49.554;7.632;2023-05-29T08:14:02;4.60;;;3.40;;
15412;SDS011;7805;49.554;7.632;2023-05-29T08:16:28;5.35;;;3.40;;
15412;SDS011;7805;49.554;7.632;2023-05-29T08:18:53;7.43;;;4.10;;
15412;SDS011;7805;49.554;7.632;2023-05-29T08:21:19;6.50;;;3.28;;
15412;SDS011;7805;49.554;7.632;2023-05-29T08:23:45;4.68;;;3.53;;
15412;SDS011;7805;49.554;7.632;2023-05-29T08:26:10;5.35;;;3.47;;
15412;SDS011;7805;49.554;7.632;2023-05-29T08:28:37;5.35;;;4.40;;
15412;SDS011;7805;49.554;7.632;2023-05-29T08:31:03;5.93;;;3.25;;
15412;SDS011;7805;49.554;7.632;2023-05-29T08:33:28;6.05;;;3.88;;
15412;SDS011;7805;49.554;7.632;2023-05-29T08:35:56;6.82;;;4.30;;
15412;SDS011;7805;49.554;7.632;2023-05-29T08:38:23;3.83;;;3.03;;
15412;SDS011;7805;49.554;7.632;2023-05-29T08:40:50;5.95;;;3.50;;
15412;SDS011;7805;49.554;7.632;2023-05-29T08:43:18;4.10;;;3.65;;
15412;SDS011;7805;49.554;7.632;2023-05-29T08:45:52;4.55;;;3.33;;
15412;SDS011;7805;49.554;7.632;2023-05-29T08:48:19;5.07;;;3.80;;
15412;SDS011;7805;49.554;7.632;2023-05-29T08:50:48;4.18;;;3.50;;
15412;SDS011;7805;49.554;7.632;2023-05-29T08:53:17;7.35;;;3.90;;
15412;SDS011;7805;49.554;7.632;2023-05-29T08:55:44;5.90;;;3.80;;
15412;SDS011;7805;49.554;7.632;2023-05-29T08:58:12;4.07;;;3.67;;
15412;SDS011;7805;49.554;7.632;2023-05-29T09:00:39;7.07;;;3.65;;
15412;SDS011;7805;49.554;7.632;2023-05-29T09:03:05;6.53;;;3.72;;
15412;SDS011;7805;49.554;7.632;2023-05-29T09:05:32;5.82;;;3.17;;
15412;SDS011;7805;49.554;7.632;2023-05-29T09:07:58;4.57;;;3.25;;
15412;SDS011;7805;49.554;7.632;2023-05-29T09:10:24;6.45;;;4.13;;
15412;SDS011;7805;49.554;7.632;2023-05-29T09:12:51;4.30;;;3.20;;
15412;SDS011;7805;49.554;7.632;2023-05-29T09:15:17;6.78;;;3.45;;
15412;SDS011;7805;49.554;7.632;2023-05-29T09:17:49;6.93;;;4.18;;
15412;SDS011;7805;49.554;7.632;2023-05-29T09:20:18;7.28;;;4.38;;
15412;SDS011;7805;49.554;7.632;2023-05-29T09:22:58;3.85;;;3.50;;
15412;SDS011;7805;49.554;7.632;2023-05-29T09:25:29;6.30;;;3.38;;
15412;SDS011;7805;49.554;7.632;2023-05-29T09:30:32;5.03;;;3.85;;
15412;SDS011;7805;49.554;7.632;2023-05-29T09:33:05;4.53;;;3.28;;
15412;SDS011;7805;49.554;7.632;2023-05-29T09:35:33;4.85;;;3.45;;
15412;SDS011;7805;49.554;7.632;2023-05-29T09:37:59;3.83;;;2.72;;
15412;SDS011;7805;49.554;7.632;2023-05-29T09:40:25;3.55;;;3.22;;
15412;SDS011;7805;49.554;7.632;2023-05-29T09:42:51;3.65;;;3.17;;
15412;SDS011;7805;49.554;7.632;2023-05-29T09:45:17;4.70;;;3.60;;
15412;SDS011;7805;49.554;7.632;2023-05-29T09:47:43;4.72;;;3.47;;
15412;SDS011;7805;49.554;7.632;2023-05-29T09:50:17;5.00;;;3.25;;
15412;SDS011;7805;49.554;7.632;2023-05-29T09:52:45;5.45;;;3.47;;
15412;SDS011;7805;49.554;7.632;2023-05-29T09:55:12;4.57;;;3.42;;
15412;SDS011;7805;49.554;7.632;2023-05-29T09:57:44;4.32;;;3.35;;
15412;SDS011;7805;49.554;7.632;2023-05-29T10:00:11;4.07;;;3.10;;
15412;SDS011;7805;49.554;7.632;2023-05-29T10:02:38;6.57;;;3.55;;
15412;SDS011;7805;49.554;7.632;2023-05-29T10:05:05;4.68;;;3.20;;
15412;SDS011;7805;49.554;7.632;2023-05-29T10:07:33;5.53;;;4.47;;
15412;SDS011;7805;49.554;7.632;2023-05-29T10:10:03;4.97;;;3.30;;
15412;SDS011;7805;49.554;7.632;2023-05-29T10:12:37;3.90;;;3.10;;
15412;SDS011;7805;49.554;7.632;2023-05-29T10:15:13;6.60;;;3.80;;
15412;SDS011;7805;49.554;7.632;2023-05-29T10:20:16;5.05;;;3.83;;
15412;SDS011;7805;49.554;7.632;2023-05-29T10:22:45;9.02;;;3.90;;
15412;SDS011;7805;49.554;7.632;2023-05-29T10:25:13;4.00;;;3.53;;
15412;SDS011;7805;49.554;7.632;2023-05-29T10:27:42;4.25;;;3.30;;
15412;SDS011;7805;49.554;7.632;2023-05-29T10:32:38;4.13;;;3.60;;
15412;SDS011;7805;49.554;7.632;2023-05-29T10:35:27;4.50;;;3.83;;
15412;SDS011;7805;49.554;7.632;2023-05-29T10:38:12;4.43;;;3.38;;
15412;SDS011;7805;49.554;7.632;2023-05-29T10:40:40;5.05;;;3.22;;
15412;SDS011;7805;49.554;7.632;2023-05-29T10:43:05;5.60;;;3.30;;
15412;SDS011;7805;49.554;7.632;2023-05-29T10:50:38;4.82;;;3.60;;
15412;SDS011;7805;49.554;7.632;2023-05-29T10:53:14;5.85;;;3.45;;
15412;SDS011;7805;49.554;7.632;2023-05-29T10:55:42;5.75;;;3.25;;
15412;SDS011;7805;49.554;7.632;2023-05-29T10:58:12;4.00;;;3.15;;
15412;SDS011;7805;49.554;7.632;2023-05-29T11:00:44;4.15;;;3.47;;
15412;SDS011;7805;49.554;7.632;2023-05-29T11:03:14;3.75;;;3.28;;
15412;SDS011;7805;49.554;7.632;2023-05-29T11:05:59;5.15;;;3.78;;
15412;SDS011;7805;49.554;7.632;2023-05-29T11:11:12;4.50;;;3.40;;
15412;SDS011;7805;49.554;7.632;2023-05-29T11:13:39;7.80;;;3.78;;
15412;SDS011;7805;49.554;7.632;2023-05-29T11:18:53;6.43;;;3.45;;
15412;SDS011;7805;49.554;7.632;2023-05-29T11:23:54;4.28;;;3.13;;
15412;SDS011;7805;49.554;7.632;2023-05-29T11:26:22;6.53;;;3.75;;
15412;SDS011;7805;49.554;7.632;2023-05-29T11:28:51;4.57;;;3.55;;
15412;SDS011;7805;49.554;7.632;2023-05-29T11:31:16;3.55;;;3.25;;
15412;SDS011;7805;49.554;7.632;2023-05-29T11:33:48;6.75;;;3.40;;
15412;SDS011;7805;49.554;7.632;2023-05-29T11:36:16;5.72;;;3.67;;
15412;SDS011;7805;49.554;7.632;2023-05-29T11:38:43;5.03;;;3.83;;
15412;SDS011;7805;49.554;7.632;2023-05-29T11:41:09;5.85;;;3.50;;
15412;SDS011;7805;49.554;7.632;2023-05-29T11:43:34;4.22;;;3.45;;
15412;SDS011;7805;49.554;7.632;2023-05-29T11:46:00;4.72;;;3.17;;
15412;SDS011;7805;49.554;7.632;2023-05-29T11:48:26;4.97;;;3.10;;
15412;SDS011;7805;49.554;7.632;2023-05-29T11:50:52;5.30;;;3.20;;
15412;SDS011;7805;49.554;7.632;2023-05-29T11:53:18;5.82;;;3.65;;
15412;SDS011;7805;49.554;7.632;2023-05-29T11:55:43;4.63;;;3.50;;
15412;SDS011;7805;49.554;7.632;2023-05-29T11:58:09;5.00;;;3.30;;
15412;SDS011;7805;49.554;7.632;2023-05-29T12:00:35;3.95;;;3.35;;
15412;SDS011;7805;49.554;7.632;2023-05-29T12:03:03;5.40;;;3.30;;
15412;SDS011;7805;49.554;7.632;2023-05-29T12:05:51;7.45;;;3.47;;
15412;SDS011;7805;49.554;7.632;2023-05-29T12:08:23;4.40;;;3.10;;
15412;SDS011;7805;49.554;7.632;2023-05-29T12:10:50;4.68;;;3.03;;
15412;SDS011;7805;49.554;7.632;2023-05-29T12:13:21;8.82;;;3.35;;
15412;SDS011;7805;49.554;7.632;2023-05-29T12:15:49;6.95;;;3.58;;
15412;SDS011;7805;49.554;7.632;2023-05-29T12:18:17;4.05;;;3.30;;
15412;SDS011;7805;49.554;7.632;2023-05-29T12:20:43;7.70;;;3.80;;
15412;SDS011;7805;49.554;7.632;2023-05-29T12:23:09;5.72;;;3.72;;
15412;SDS011;7805;49.554;7.632;2023-05-29T12:25:37;7.82;;;4.32;;
15412;SDS011;7805;49.554;7.632;2023-05-29T12:28:02;7.32;;;3.65;;
15412;SDS011;7805;49.554;7.632;2023-05-29T12:30:28;3.95;;;3.13;;
15412;SDS011;7805;49.554;7.632;2023-05-29T12:32:54;7.30;;;3.70;;
15412;SDS011;7805;49.554;7.632;2023-05-29T12:37:47;5.60;;;3.75;;
15412;SDS011;7805;49.554;7.632;2023-05-29T12:42:53;5.80;;;3.65;;
15412;SDS011;7805;49.554;7.632;2023-05-29T12:45:20;6.72;;;3.85;;
15412;SDS011;7805;49.554;7.632;2023-05-29T12:52:52;9.00;;;3.40;;
15412;SDS011;7805;49.554;7.632;2023-05-29T12:55:22;6.72;;;3.78;;
15412;SDS011;7805;49.554;7.632;2023-05-29T12:57:48;4.50;;;3.53;;
15412;SDS011;7805;49.554;7.632;2023-05-29T13:00:13;4.40;;;3.97;;
15412;SDS011;7805;49.554;7.632;2023-05-29T13:02:39;7.32;;;3.55;;
15412;SDS011;7805;49.554;7.632;2023-05-29T13:05:05;5.43;;;3.13;;
15412;SDS011;7805;49.554;7.632;2023-05-29T13:07:32;5.68;;;3.28;;
15412;SDS011;7805;49.554;7.632;2023-05-29T13:09:59;3.83;;;3.03;;
15412;SDS011;7805;49.554;7.632;2023-05-29T13:12:25;4.32;;;3.45;;
15412;SDS011;7805;49.554;7.632;2023-05-29T13:14:50;7.90;;;3.33;;
15412;SDS011;7805;49.554;7.632;2023-05-29T13:17:16;3.42;;;3.13;;
15412;SDS011;7805;49.554;7.632;2023-05-29T13:19:42;7.50;;;3.33;;
15412;SDS011;7805;49.554;7.632;2023-05-29T13:22:08;7.03;;;2.97;;
15412;SDS011;7805;49.554;7.632;2023-05-29T13:24:34;5.82;;;3.40;;
15412;SDS011;7805;49.554;7.632;2023-05-29T13:26:59;5.43;;;3.58;;
15412;SDS011;7805;49.554;7.632;2023-05-29T13:29:25;4.85;;;3.10;;
15412;SDS011;7805;49.554;7.632;2023-05-29T13:31:51;3.65;;;3.03;;
15412;SDS011;7805;49.554;7.632;2023-05-29T13:34:17;4.35;;;3.40;;
15412;SDS011;7805;49.554;7.632;2023-05-29T13:36:42;4.40;;;2.85;;
15412;SDS011;7805;49.554;7.632;2023-05-29T13:39:09;6.43;;;3.45;;
15412;SDS011;7805;49.554;7.632;2023-05-29T13:41:35;5.30;;;3.10;;
15412;SDS011;7805;49.554;7.632;2023-05-29T13:44:01;4.93;;;3.30;;
15412;SDS011;7805;49.554;7.632;2023-05-29T13:46:27;5.15;;;3.17;;
15412;SDS011;7805;49.554;7.632;2023-05-29T13:48:52;4.88;;;3.00;;
15412;SDS011;7805;49.554;7.632;2023-05-29T13:51:18;4.05;;;3.25;;
15412;SDS011;7805;49.554;7.632;2023-05-29T13:53:43;3.63;;;3.13;;
15412;SDS011;7805;49.554;7.632;2023-05-29T13:56:09;4.05;;;3.28;;
15412;SDS011;7805;49.554;7.632;2023-05-29T13:58:34;7.82;;;3.17;;
15412;SDS011;7805;49.554;7.632;2023-05-29T14:01:00;3.92;;;2.95;;
15412;SDS011;7805;49.554;7.632;2023-05-29T14:03:25;4.55;;;2.85;;
15412;SDS011;7805;49.554;7.632;2023-05-29T14:05:53;3.00;;;2.70;;
15412;SDS011;7805;49.554;7.632;2023-05-29T14:08:19;3.92;;;3.20;;
15412;SDS011;7805;49.554;7.632;2023-05-29T14:10:45;4.35;;;3.13;;
15412;SDS011;7805;49.554;7.632;2023-05-29T14:13:10;3.13;;;2.83;;
15412;SDS011;7805;49.554;7.632;2023-05-29T14:15:36;3.20;;;2.90;;
15412;SDS011;7805;49.554;7.632;2023-05-29T14:18:02;3.22;;;2.75;;
15412;SDS011;7805;49.554;7.632;2023-05-29T14:20:28;4.43;;;2.83;;
15412;SDS011;7805;49.554;7.632;2023-05-29T14:22:54;7.30;;;2.85;;
15412;SDS011;7805;49.554;7.632;2023-05-29T14:25:19;3.53;;;3.17;;
15412;SDS011;7805;49.554;7.632;2023-05-29T14:27:45;4.57;;;3.45;;
15412;SDS011;7805;49.554;7.632;2023-05-29T14:30:11;3.50;;;3.17;;
15412;SDS011;7805;49.554;7.632;2023-05-29T14:32:36;3.25;;;2.70;;
15412;SDS011;7805;49.554;7.632;2023-05-29T14:35:02;3.45;;;3.13;;
15412;SDS011;7805;49.554;7.632;2023-05-29T14:37:28;6.45;;;3.75;;
15412;SDS011;7805;49.554;7.632;2023-05-29T14:39:53;5.13;;;3.30;;
15412;SDS011;7805;49.554;7.632;2023-05-29T14:42:19;3.50;;;3.03;;
15412;SDS011;7805;49.554;7.632;2023-05-29T14:44:45;3.42;;;3.10;;
15412;SDS011;7805;49.554;7.632;2023-05-29T14:47:11;3.55;;;2.88;;
15412;SDS011;7805;49.554;7.632;2023-05-29T14:49:37;5.22;;;2.90;;
15412;SDS011;7805;49.554;7.632;2023-05-29T14:52:03;3.33;;;3.00;;
15412;SDS011;7805;49.554;7.632;2023-05-29T14:54:29;7.65;;;3.30;;
15412;SDS011;7805;49.554;7.632;2023-05-29T14:56:55;5.93;;;3.40;;
15412;SDS011;7805;49.554;7.632;2023-05-29T14:59:22;4.47;;;3.17;;
15412;SDS011;7805;49.554;7.632;2023-05-29T15:01:48;3.92;;;3.30;;
15412;SDS011;7805;49.554;7.632;2023-05-29T15:04:15;3.40;;;3.08;;
15412;SDS011;7805;49.554;7.632;2023-05-29T15:06:41;4.60;;;3.90;;
15412;SDS011;7805;49.554;7.632;2023-05-29T15:09:06;4.10;;;3.33;;
15412;SDS011;7805;49.554;7.632;2023-05-29T15:11:32;4.97;;;3.50;;
15412;SDS011;7805;49.554;7.632;2023-05-29T15:13:58;3.80;;;3.50;;
15412;SDS011;7805;49.554;7.632;2023-05-29T15:16:23;3.50;;;3.13;;
15412;SDS011;7805;49.554;7.632;2023-05-29T15:18:49;4.20;;;3.30;;
15412;SDS011;7805;49.554;7.632;2023-05-29T15:21:15;3.63;;;2.95;;
15412;SDS011;7805;49.554;7.632;2023-05-29T15:23:40;3.70;;;3.03;;
15412;SDS011;7805;49.554;7.632;2023-05-29T15:26:08;5.18;;;4.03;;
15412;SDS011;7805;49.554;7.632;2023-05-29T15:28:34;4.07;;;3.03;;
15412;SDS011;7805;49.554;7.632;2023-05-29T15:31:00;6.00;;;3.20;;
15412;SDS011;7805;49.554;7.632;2023-05-29T15:33:26;4.20;;;3.60;;
15412;SDS011;7805;49.554;7.632;2023-05-29T15:35:52;6.20;;;3.28;;
15412;SDS011;7805;49.554;7.632;2023-05-29T15:38:17;5.30;;;4.80;;